createdAt,value
2019-04-20T00:01:25.467Z,101683.17
2019-04-20T00:06:24.947Z,101686.59
2019-04-20T00:11:41.290Z,101695.47
2019-04-20T00:16:35.823Z,101693.28
2019-04-20T00:21:46.994Z,101703.91
2019-04-20T00:32:06.566Z,101697.71
2019-04-20T00:37:00.652Z,101693.34
2019-04-20T00:42:10.710Z,101689.47
2019-04-20T00:47:20.080Z,101694.30
2019-04-20T00:52:30.969Z,101699.52
2019-04-20T00:57:34.699Z,101698.63
2019-04-20T01:02:40.319Z,101696.03
2019-04-20T01:07:59.903Z,101701.31
2019-04-20T01:13:06.737Z,101695.21
2019-04-20T01:18:06.093Z,101701.34
2019-04-20T01:23:13.905Z,101700.88
2019-04-20T01:28:35.854Z,101703.93
2019-04-20T01:33:34.402Z,101699.16
2019-04-20T01:38:45.024Z,101694.34
2019-04-20T01:43:35.312Z,101710.77
2019-04-20T01:48:41.569Z,101699.13
2019-04-20T01:54:06.758Z,101695.23
2019-04-20T01:59:18.803Z,101696.50
2019-04-20T02:04:11.896Z,101705.64
2019-04-20T02:09:17.194Z,101697.77
2019-04-20T02:14:28.640Z,101700.33
2019-04-20T02:19:37.699Z,101696.04
2019-04-20T02:24:32.506Z,101708.25
2019-04-20T02:30:03.789Z,101703.00
2019-04-20T02:35:29.313Z,101698.17
2019-04-20T02:45:50.514Z,101698.57
2019-04-20T02:50:43.293Z,101704.23
2019-04-20T02:55:47.711Z,101702.80
2019-04-20T03:00:45.764Z,101699.73
2019-04-20T03:05:38.212Z,101699.21
2019-04-20T03:11:00.763Z,101703.12
2019-04-20T03:16:01.823Z,101703.53
2019-04-20T03:21:12.746Z,101700.05
2019-04-20T03:26:18.979Z,101700.92
2019-04-20T03:36:49.035Z,101702.63
2019-04-20T03:41:32.489Z,101702.26
2019-04-20T03:46:36.622Z,101696.57
2019-04-20T03:51:57.338Z,101696.41
2019-04-20T03:57:15.689Z,101703.41
2019-04-20T04:02:37.868Z,101697.78
2019-04-20T04:07:21.888Z,101702.46
2019-04-20T04:12:54.810Z,101694.59
2019-04-20T04:18:07.435Z,101692.81
2019-04-20T04:23:24.606Z,101693.72
2019-04-20T04:28:28.698Z,101697.64
2019-04-20T04:33:53.360Z,101699.02
2019-04-20T04:38:51.799Z,101705.43
2019-04-20T04:43:50.590Z,101710.12
2019-04-20T04:48:41.117Z,101708.52
2019-04-20T04:53:52.911Z,101710.34
2019-04-20T04:58:49.570Z,101713.92
2019-04-20T05:04:21.315Z,101715.66
2019-04-20T05:09:05.246Z,101717.89
2019-04-20T05:14:16.867Z,101711.27
2019-04-20T05:19:37.057Z,101714.81
2019-04-20T05:25:01.016Z,101726.10
2019-04-20T05:29:44.701Z,101723.08
2019-04-20T05:35:17.709Z,101721.73
2019-04-20T05:40:20.508Z,101712.60
2019-04-20T05:50:27.430Z,101705.55
2019-04-20T05:55:34.024Z,101703.70
2019-04-20T06:00:53.164Z,101701.19
2019-04-20T06:05:55.167Z,101702.57
2019-04-20T06:10:56.404Z,101697.58
2019-04-20T06:16:01.373Z,101709.35
2019-04-20T06:21:19.983Z,101702.78
2019-04-20T06:31:26.689Z,101703.39
2019-04-20T06:36:32.322Z,101704.87
2019-04-20T06:41:54.325Z,101710.73
2019-04-20T06:46:48.726Z,101712.81
2019-04-20T06:51:57.398Z,101713.03
2019-04-20T06:57:01.242Z,101708.26
2019-04-20T07:02:11.187Z,101705.52
2019-04-20T07:07:15.690Z,101705.64
2019-04-20T07:12:21.308Z,101709.30
2019-04-20T07:17:39.251Z,101705.97
2019-04-20T07:22:55.961Z,101700.57
2019-04-20T07:28:02.223Z,101698.31
2019-04-20T07:33:12.905Z,101704.61
2019-04-20T07:38:24.340Z,101693.55
2019-04-20T07:43:09.290Z,101691.50
2019-04-20T07:48:20.595Z,101696.16
2019-04-20T07:53:25.720Z,101689.75
2019-04-20T07:58:25.265Z,101687.70
2019-04-20T08:03:44.524Z,101682.91
2019-04-20T08:08:43.769Z,101678.36
2019-04-20T08:14:00.060Z,101676.09
2019-04-20T08:19:01.301Z,101672.80
2019-04-20T08:24:02.914Z,101664.88
2019-04-20T08:29:21.644Z,101668.38
2019-04-20T08:34:46.124Z,101662.12
2019-04-20T08:39:58.785Z,101657.95
2019-04-20T08:45:03.757Z,101655.91
2019-04-20T08:55:16.617Z,101643.61
2019-04-20T09:00:09.021Z,101642.40
2019-04-20T09:05:30.330Z,101629.90
2019-04-20T09:10:43.887Z,101624.66
2019-04-20T09:15:27.715Z,101619.44
2019-04-20T09:20:45.839Z,101623.25
2019-04-20T09:26:01.815Z,101611.67
2019-04-20T09:31:09.549Z,101608.59
2019-04-20T09:36:14.295Z,101600.39
2019-04-20T09:41:34.544Z,101593.81
2019-04-20T09:46:13.736Z,101594.79
2019-04-20T09:51:37.676Z,101585.13
2019-04-20T09:56:39.729Z,101576.52
2019-04-20T10:01:40.204Z,101577.45
2019-04-20T10:06:37.779Z,101570.30
2019-04-20T10:11:45.121Z,101571.89
2019-04-20T10:16:49.716Z,101568.80
2019-04-20T10:21:54.907Z,101558.20
2019-04-20T10:27:00.739Z,101551.50
2019-04-20T10:32:07.938Z,101548.08
2019-04-20T10:37:13.982Z,101536.30
2019-04-20T10:42:18.456Z,101538.50
2019-04-20T10:47:23.071Z,101540.53
2019-04-20T10:52:27.876Z,101537.20
2019-04-20T10:57:33.384Z,101529.91
2019-04-20T11:02:37.843Z,101524.84
2019-04-20T11:07:42.202Z,101526.83
2019-04-20T11:12:46.544Z,101518.06
2019-04-20T11:17:51.408Z,101511.70
2019-04-20T11:22:56.062Z,101503.53
2019-04-20T11:28:01.611Z,101506.11
2019-04-20T11:33:06.474Z,101503.77
2019-04-20T11:38:13.770Z,101496.51
2019-04-20T11:43:17.826Z,101489.30
2019-04-20T11:48:23.351Z,101495.61
2019-04-20T11:53:28.598Z,101486.91
2019-04-20T11:58:33.546Z,101484.31
2019-04-20T12:03:49.625Z,101484.98
2019-04-20T12:08:45.463Z,101464.09
2019-04-20T12:13:49.987Z,101467.03
2019-04-20T12:18:54.682Z,101464.64
2019-04-20T12:24:00.296Z,101446.86
2019-04-20T12:29:05.698Z,101451.55
2019-04-20T12:34:10.568Z,101444.30
2019-04-20T12:39:15.130Z,101437.58
2019-04-20T12:44:19.778Z,101433.28
2019-04-20T12:49:25.396Z,101441.88
2019-04-20T12:54:29.814Z,101431.25
2019-04-20T12:59:34.157Z,101431.78
2019-04-20T13:04:39.473Z,101419.95
2019-04-20T13:09:48.517Z,101417.92
2019-04-20T13:15:29.249Z,101407.65
2019-04-20T13:20:34.132Z,101403.16
2019-04-20T13:25:39.188Z,101409.81
2019-04-20T13:30:43.914Z,101399.89
2019-04-20T13:35:48.254Z,101392.46
2019-04-20T13:40:53.647Z,101388.66
2019-04-20T13:45:59.187Z,101385.42
2019-04-20T13:51:05.437Z,101382.20
2019-04-20T13:56:12.071Z,101370.97
2019-04-20T14:01:26.886Z,101356.83
2019-04-20T14:06:31.423Z,101356.09
2019-04-20T14:11:36.185Z,101345.35
2019-04-20T14:16:41.253Z,101343.36
2019-04-20T14:21:46.147Z,101335.19
2019-04-20T14:26:50.893Z,101337.61
2019-04-20T14:31:55.709Z,101325.80
2019-04-20T14:37:02.561Z,101332.25
2019-04-20T14:42:07.037Z,101327.05
2019-04-20T14:47:11.892Z,101321.95
2019-04-20T14:52:17.616Z,101309.41
2019-04-20T14:57:23.431Z,101311.50
2019-04-20T15:02:30.187Z,101299.78
2019-04-20T15:07:34.735Z,101292.76
2019-04-20T15:12:48.847Z,101296.55
2019-04-20T15:17:51.255Z,101286.84
2019-04-20T15:22:57.507Z,101281.28
2019-04-20T15:28:02.750Z,101277.50
2019-04-20T15:33:07.415Z,101273.64
2019-04-20T15:38:11.738Z,101263.19
2019-04-20T15:43:20.600Z,101266.81
2019-04-20T15:48:22.273Z,101261.84
2019-04-20T15:53:26.732Z,101255.41
2019-04-20T15:58:32.399Z,101247.42
2019-04-20T16:03:47.677Z,101238.08
2019-04-20T16:08:54.454Z,101245.88
2019-04-20T16:14:00.125Z,101236.83
2019-04-20T16:19:15.908Z,101227.70
2019-04-20T16:24:12.961Z,101224.13
2019-04-20T16:29:17.789Z,101224.99
2019-04-20T16:34:23.375Z,101224.73
2019-04-20T16:39:28.270Z,101224.17
2019-04-20T16:44:33.426Z,101222.24
2019-04-20T16:49:39.040Z,101221.50
2019-04-20T16:54:43.869Z,101204.56
2019-04-20T16:59:52.260Z,101204.56
2019-04-20T17:04:55.404Z,101212.07
2019-04-20T17:10:00.342Z,101202.36
2019-04-20T17:15:07.529Z,101206.81
2019-04-20T17:20:13.757Z,101203.48
2019-04-20T17:25:19.646Z,101202.96
2019-04-20T17:30:47.215Z,101197.15
2019-04-20T17:35:59.359Z,101204.20
2019-04-20T17:41:13.692Z,101210.84
2019-04-20T17:46:12.178Z,101214.77
2019-04-20T17:51:37.189Z,101214.00
2019-04-20T17:56:17.423Z,101211.91
2019-04-20T18:01:42.347Z,101212.53
2019-04-20T18:06:52.652Z,101223.81
2019-04-20T18:11:47.332Z,101224.14
2019-04-20T18:17:11.393Z,101223.22
2019-04-20T18:22:01.257Z,101222.14
2019-04-20T18:27:28.953Z,101219.61
2019-04-20T18:32:13.984Z,101224.70
2019-04-20T18:37:21.468Z,101224.45
2019-04-20T18:42:32.358Z,101230.63
2019-04-20T18:47:49.657Z,101236.70
2019-04-20T18:52:37.896Z,101236.71
2019-04-20T18:57:44.455Z,101239.66
2019-04-20T19:02:53.859Z,101239.84
2019-04-20T19:08:01.474Z,101245.03
2019-04-20T19:13:25.346Z,101247.93
2019-04-20T19:18:58.458Z,101247.13
2019-04-20T19:23:57.980Z,101242.58
2019-04-20T19:28:58.333Z,101250.33
2019-04-20T19:34:18.803Z,101254.56
2019-04-20T19:39:22.253Z,101252.57
2019-04-20T19:44:25.013Z,101252.89
2019-04-20T19:49:36.041Z,101239.56
2019-04-20T19:54:46.599Z,101239.04
2019-04-20T19:59:40.354Z,101242.02
2019-04-20T20:04:47.105Z,101237.09
2019-04-20T20:09:53.022Z,101231.72
2019-04-20T20:14:53.167Z,101234.34
2019-04-20T20:20:25.157Z,101231.65
2019-04-20T20:25:05.324Z,101237.30
2019-04-20T20:30:20.463Z,101240.65
2019-04-20T20:35:23.493Z,101242.09
2019-04-20T20:40:30.514Z,101237.80
2019-04-20T20:45:36.997Z,101242.81
2019-04-20T20:50:55.254Z,101239.72
2019-04-20T20:55:45.937Z,101242.09
2019-04-20T21:00:58.537Z,101244.12
2019-04-20T21:05:53.795Z,101244.07
2019-04-20T21:10:58.222Z,101243.28
2019-04-20T21:16:11.543Z,101251.95
2019-04-20T21:21:21.972Z,101250.06
2019-04-20T21:26:21.466Z,101255.11
2019-04-20T21:31:24.225Z,101258.31
2019-04-20T21:36:29.949Z,101260.90
2019-04-20T21:41:33.698Z,101263.53
2019-04-20T21:46:44.144Z,101251.51
2019-04-20T21:51:54.873Z,101261.22
2019-04-20T21:56:56.151Z,101259.07
2019-04-20T22:02:05.705Z,101268.40
2019-04-20T22:07:02.642Z,101277.66
2019-04-20T22:12:07.744Z,101270.45
2019-04-20T22:17:14.234Z,101269.45
2019-04-20T22:22:36.716Z,101275.20
2019-04-20T22:27:29.492Z,101274.79
2019-04-20T22:32:30.536Z,101274.47
2019-04-20T22:37:42.784Z,101274.67
2019-04-20T22:42:50.992Z,101274.27
2019-04-20T22:48:01.153Z,101269.71
2019-04-20T22:53:18.984Z,101261.50
2019-04-20T22:58:23.615Z,101267.77
2019-04-20T23:03:12.613Z,101257.13
2019-04-20T23:08:17.134Z,101256.90
2019-04-20T23:13:29.512Z,101246.45
2019-04-20T23:18:28.431Z,101250.17
2019-04-20T23:36:31.887Z,101236.69
2019-04-20T23:41:29.121Z,101234.91
2019-04-20T23:46:35.145Z,101233.87
2019-04-20T23:51:59.147Z,101230.91
2019-04-20T23:56:45.909Z,101224.30
